Time;durP1;ratioP1;P1;durP2;ratioP2;P2;SDS_P1;SDS_P2;PMS_P1;PMS_P2;Temp;Humidity;BMP_temperature;BMP_pressure;BME280_temperature;BME280_humidity;BME280_pressure;Samples;Min_cycle;Max_cycle;Signal;HPM_P1;HPM_P2
2022/11/22 00:01:03;;;;;;;5.80;3.42;;;;;;;8.55;59.92;98829.47;4967110;28;20472;-96
2022/11/22 00:03:28;;;;;;;5.32;3.47;;;;;;;8.37;59.35;98836.16;4968917;28;20445;-96
2022/11/22 00:05:54;;;;;;;4.07;3.08;;;;;;;8.56;60.29;98841.84;4988487;28;20037;-96
2022/11/22 00:08:19;;;;;;;5.30;3.58;;;;;;;8.70;59.16;98865.19;4985078;28;20113;-95
2022/11/22 00:10:47;;;;;;;5.75;3.22;;;;;;;8.67;61.68;98863.03;4979004;28;20049;-94
2022/11/22 00:13:13;;;;;;;4.82;3.47;;;;;;;8.70;61.47;98867.88;4979947;28;20054;-96
2022/11/22 00:15:38;;;;;;;5.80;3.92;;;;;;;8.61;62.45;98869.47;4985290;28;20040;-94
2022/11/22 00:18:04;;;;;;;6.00;3.92;;;;;;;8.69;61.61;98871.63;4984122;28;20495;-95
2022/11/22 00:20:29;;;;;;;5.03;3.60;;;;;;;8.83;59.64;98888.00;4984601;28;20034;-96
2022/11/22 00:22:56;;;;;;;5.78;3.97;;;;;;;8.81;61.64;98860.59;4986436;28;20053;-96
2022/11/22 00:25:22;;;;;;;6.50;4.70;;;;;;;8.79;61.97;98856.59;4992084;28;20029;-96
2022/11/22 00:27:47;;;;;;;7.95;5.53;;;;;;;8.68;62.68;98845.84;4985853;28;20029;-96
2022/11/22 00:30:13;;;;;;;7.82;5.22;;;;;;;8.81;60.77;98852.56;4985278;28;20029;-95
2022/11/22 00:32:38;;;;;;;6.25;4.53;;;;;;;8.89;60.15;98852.00;4984925;28;20029;-96
2022/11/22 00:35:04;;;;;;;7.10;5.00;;;;;;;8.80;59.79;98834.03;4984103;28;20420;-94
2022/11/22 00:37:30;;;;;;;6.90;4.28;;;;;;;8.86;58.39;98833.78;4985418;28;20412;-96
2022/11/22 00:39:55;;;;;;;6.78;4.65;;;;;;;8.96;59.75;98856.31;5000118;28;20030;-96
2022/11/22 00:42:23;;;;;;;8.60;4.50;;;;;;;8.87;59.29;98834.56;4984670;28;20033;-96
2022/11/22 00:44:49;;;;;;;6.90;4.80;;;;;;;8.88;58.35;98834.31;4983821;28;20098;-96
2022/11/22 00:47:14;;;;;;;7.30;5.10;;;;;;;8.99;60.65;98856.56;4984424;28;20029;-96
2022/11/22 00:49:40;;;;;;;7.28;5.43;;;;;;;8.86;62.24;98844.50;4983861;28;20083;-94
2022/11/22 00:52:05;;;;;;;7.10;5.18;;;;;;;8.90;60.23;98853.63;4984089;28;20480;-95
2022/11/22 00:54:31;;;;;;;7.57;5.10;;;;;;;8.70;62.47;98834.84;4983533;28;20124;-96
2022/11/22 00:56:56;;;;;;;8.10;4.85;;;;;;;8.54;62.23;98835.94;4983601;28;20076;-96
2022/11/22 00:59:22;;;;;;;5.78;4.43;;;;;;;8.58;60.88;98855.78;4984395;28;20476;-93
2022/11/22 01:01:47;;;;;;;6.05;4.70;;;;;;;8.42;61.25;98844.22;4983458;28;20054;-96
2022/11/22 01:04:13;;;;;;;6.47;4.65;;;;;;;8.50;61.14;98841.81;4983037;28;20091;-96
2022/11/22 01:06:38;;;;;;;6.22;4.43;;;;;;;8.42;62.48;98842.34;4983566;28;20029;-96
2022/11/22 01:09:04;;;;;;;7.45;4.53;;;;;;;8.44;61.94;98842.09;4983037;28;20041;-95
2022/11/22 01:11:29;;;;;;;7.15;5.10;;;;;;;8.30;62.50;98836.44;4983919;28;20030;-96
2022/11/22 01:13:54;;;;;;;7.18;5.30;;;;;;;8.42;62.22;98858.44;4984406;28;20049;-95
2022/11/22 01:16:20;;;;;;;7.28;5.05;;;;;;;8.35;62.63;98841.00;4983515;28;20064;-91
2022/11/22 01:18:45;;;;;;;7.50;5.35;;;;;;;8.43;63.14;98835.13;4989714;28;20508;-91
2022/11/22 01:21:11;;;;;;;5.40;4.18;;;;;;;8.34;61.96;98831.31;4965189;28;20031;-91
2022/11/22 01:23:39;;;;;;;9.82;5.35;;;;;;;8.45;63.73;98838.34;4985607;28;20427;-90
2022/11/22 01:26:08;;;;;;;5.43;4.43;;;;;;;8.53;64.12;98851.22;4973929;28;20026;-90
2022/11/22 01:28:33;;;;;;;7.55;4.78;;;;;;;8.29;63.74;98842.84;4969224;28;20025;-91
2022/11/22 01:30:59;;;;;;;7.88;5.05;;;;;;;8.38;64.17;98856.53;4979830;28;20523;-90
2022/11/22 01:33:24;;;;;;;6.78;5.20;;;;;;;8.27;65.76;98853.84;4989177;28;20053;-91
2022/11/22 01:35:50;;;;;;;7.07;5.13;;;;;;;8.18;65.06;98839.34;4997702;28;20039;-91
2022/11/22 01:38:15;;;;;;;7.97;4.75;;;;;;;8.02;64.46;98835.81;4985942;28;20485;-90
2022/11/22 01:40:41;;;;;;;6.30;4.60;;;;;;;8.10;65.41;98847.91;4973483;28;20484;-95
2022/11/22 01:43:24;;;;;;;8.57;5.13;;;;;;;8.09;64.23;98838.25;4983116;28;20034;-96
2022/11/22 01:45:56;;;;;;;7.03;4.68;;;;;;;7.96;63.73;98833.41;4999615;28;20018;-96
2022/11/22 01:48:30;;;;;;;8.32;5.35;;;;;;;7.84;63.11;98826.41;4982934;28;20037;-96
2022/11/22 01:51:11;;;;;;;7.60;5.03;;;;;;;7.88;64.57;98856.16;4999432;28;20021;-95
2022/11/22 01:53:37;;;;;;;6.50;4.55;;;;;;;7.63;64.61;98832.75;4984817;28;20484;-95
2022/11/22 01:56:05;;;;;;;7.60;5.22;;;;;;;7.66;65.55;98825.00;4981950;28;20559;-94
2022/11/22 01:58:32;;;;;;;7.85;5.72;;;;;;;7.61;65.96;98842.94;4983122;28;20033;-95
2022/11/22 02:00:57;;;;;;;8.43;5.20;;;;;;;7.59;65.42;98840.50;4982616;28;20022;-96
2022/11/22 02:03:23;;;;;;;7.72;4.80;;;;;;;7.42;64.65;98843.38;4981969;28;20060;-96
2022/11/22 02:05:48;;;;;;;6.63;4.90;;;;;;;7.38;65.57;98854.88;4981634;28;20072;-95
2022/11/22 02:08:48;;;;;;;6.93;5.00;;;;;;;7.34;64.17;98851.13;4982135;28;20172;-96
2022/11/22 02:11:14;;;;;;;10.10;4.90;;;;;;;7.33;64.86;98855.66;4980257;28;20034;-96
2022/11/22 02:13:41;;;;;;;7.68;5.45;;;;;;;7.18;64.37;98843.00;4982275;28;20072;-95
2022/11/22 02:16:06;;;;;;;6.95;4.65;;;;;;;7.18;64.15;98848.38;4982153;28;20109;-95
2022/11/22 02:18:35;;;;;;;7.50;4.70;;;;;;;7.11;65.64;98842.41;4979298;28;20018;-92
2022/11/22 02:21:01;;;;;;;8.18;4.68;;;;;;;7.05;66.53;98838.91;4964648;28;20029;-93
2022/11/22 02:24:19;;;;;;;6.50;4.65;;;;;;;6.98;68.25;98865.09;4967523;28;20485;-93
2022/11/22 02:26:44;;;;;;;6.22;4.15;;;;;;;6.85;67.96;98860.19;4987434;28;20041;-92
2022/11/22 02:29:11;;;;;;;8.57;5.00;;;;;;;6.70;68.54;98850.16;4968361;28;20037;-92
2022/11/22 02:31:41;;;;;;;6.43;4.38;;;;;;;6.80;67.53;98852.91;4973960;28;20065;-93
2022/11/22 02:34:08;;;;;;;6.93;4.38;;;;;;;6.71;68.54;98853.66;4967611;28;20022;-92
2022/11/22 02:36:37;;;;;;;6.72;4.20;;;;;;;6.73;68.53;98860.38;4965908;28;20030;-93
2022/11/22 02:39:03;;;;;;;6.03;4.35;;;;;;;6.62;68.58;98846.09;4961981;28;20034;-93
2022/11/22 02:41:28;;;;;;;5.70;4.05;;;;;;;6.72;68.84;98855.25;4972649;28;20486;-93
2022/11/22 02:43:54;;;;;;;6.13;4.30;;;;;;;6.72;69.71;98845.34;4969368;28;20034;-92
2022/11/22 02:46:21;;;;;;;5.55;4.10;;;;;;;6.67;69.43;98842.66;4966769;28;20022;-92
2022/11/22 02:48:47;;;;;;;7.70;4.50;;;;;;;6.75;68.13;98858.25;4973222;28;20022;-93
2022/11/22 02:51:15;;;;;;;6.13;4.10;;;;;;;6.68;69.49;98855.78;4975030;28;20010;-93
2022/11/22 02:53:42;;;;;;;6.93;4.57;;;;;;;6.64;69.11;98843.97;4980934;28;20053;-92
2022/11/22 02:56:07;;;;;;;6.95;4.20;;;;;;;6.63;69.51;98857.59;4985292;28;20033;-92
2022/11/22 02:58:33;;;;;;;5.72;3.95;;;;;;;6.41;70.24;98860.34;4961903;28;20042;-92
2022/11/22 03:00:58;;;;;;;6.90;4.32;;;;;;;6.39;70.20;98862.47;4970455;28;20037;-92
2022/11/22 03:03:24;;;;;;;6.55;4.47;;;;;;;6.32;70.23;98857.34;4973443;28;20037;-92
2022/11/22 03:05:49;;;;;;;6.80;4.40;;;;;;;6.06;71.28;98854.41;4971340;28;20042;-92
2022/11/22 03:08:15;;;;;;;7.03;4.63;;;;;;;6.10;70.83;98864.59;4971024;28;20050;-93
2022/11/22 03:10:40;;;;;;;9.88;4.70;;;;;;;6.10;70.17;98875.28;4970464;28;20052;-92
2022/11/22 03:13:05;;;;;;;7.97;4.45;;;;;;;5.98;71.02;98875.44;4965461;28;20050;-93
2022/11/22 03:15:31;;;;;;;5.38;3.92;;;;;;;6.00;70.32;98860.75;4968246;28;20034;-93
2022/11/22 03:18:00;;;;;;;6.68;4.20;;;;;;;6.06;69.58;98845.59;4966292;28;20026;-93
2022/11/22 03:20:26;;;;;;;5.82;3.85;;;;;;;6.08;68.74;98843.47;4967406;28;20108;-93
2022/11/22 03:22:52;;;;;;;5.68;4.05;;;;;;;6.12;68.92;98844.59;4965804;28;20463;-93
2022/11/22 03:25:17;;;;;;;4.93;3.58;;;;;;;6.10;68.95;98844.03;4984518;28;20034;-95
2022/11/22 03:27:43;;;;;;;6.65;3.75;;;;;;;6.00;68.41;98834.03;4984007;28;20026;-93
2022/11/22 03:30:09;;;;;;;6.22;4.00;;;;;;;6.10;68.93;98849.38;4972883;28;20117;-92
2022/11/22 03:32:34;;;;;;;4.97;3.63;;;;;;;6.12;68.71;98847.25;4969561;28;20054;-93
2022/11/22 03:35:00;;;;;;;5.53;3.65;;;;;;;6.21;67.51;98869.78;4975281;28;20026;-92
2022/11/22 03:37:25;;;;;;;5.70;3.95;;;;;;;6.15;68.77;98860.13;4971949;28;20034;-93
2022/11/22 03:39:51;;;;;;;8.13;4.53;;;;;;;5.90;71.66;98873.19;4988628;28;20058;-92
2022/11/22 03:42:16;;;;;;;5.50;4.00;;;;;;;5.80;71.05;98871.19;4972050;28;20026;-92
2022/11/22 03:44:42;;;;;;;8.95;4.28;;;;;;;5.52;72.26;98864.16;4974677;28;20508;-93
2022/11/22 03:47:07;;;;;;;5.60;3.70;;;;;;;5.49;73.05;98897.50;4989107;28;20030;-93
2022/11/22 03:49:33;;;;;;;5.63;4.15;;;;;;;5.35;72.10;98890.91;4970678;28;20033;-95
2022/11/22 03:51:58;;;;;;;4.85;4.07;;;;;;;5.35;71.64;98886.38;4970988;28;20030;-94
2022/11/22 03:54:24;;;;;;;7.10;4.30;;;;;;;5.43;72.24;98901.97;4992701;28;20022;-94
2022/11/22 03:56:49;;;;;;;5.50;3.95;;;;;;;5.51;72.14;98907.94;4989155;28;20031;-95
2022/11/22 03:59:15;;;;;;;7.72;4.22;;;;;;;5.53;72.19;98890.63;4969912;28;20037;-93
2022/11/22 04:01:40;;;;;;;6.72;3.80;;;;;;;5.65;71.43;98904.66;4970998;28;20022;-94
2022/11/22 04:04:05;;;;;;;8.10;4.70;;;;;;;5.70;71.12;98908.47;4967213;28;20018;-92
2022/11/22 04:06:31;;;;;;;5.88;4.07;;;;;;;5.52;70.67;98885.53;4970210;28;20085;-93
2022/11/22 04:08:57;;;;;;;7.15;4.00;;;;;;;5.60;70.59;98901.13;4970310;28;20096;-93
2022/11/22 04:11:22;;;;;;;6.22;4.10;;;;;;;5.53;70.09;98893.28;4973688;28;20025;-92
2022/11/22 04:16:32;;;;;;;6.03;4.10;;;;;;;5.61;71.25;98913.44;4985569;28;20524;-93
2022/11/22 04:19:01;;;;;;;10.05;3.95;;;;;;;5.45;71.99;98917.75;4974476;28;20037;-93
2022/11/22 04:21:35;;;;;;;6.22;4.35;;;;;;;5.34;73.04;98910.66;4962371;28;20109;-93
2022/11/22 04:26:52;;;;;;;9.48;3.72;;;;;;;5.44;70.41;98921.47;4983049;28;20148;-93
2022/11/22 04:29:18;;;;;;;8.23;3.88;;;;;;;5.37;69.95;98915.50;4969170;28;20055;-93
2022/11/22 04:34:30;;;;;;;5.05;3.67;;;;;;;5.38;70.08;98915.25;4991203;28;20518;-93
2022/11/22 04:36:56;;;;;;;9.50;3.97;;;;;;;5.31;70.61;98913.81;4991482;28;20038;-94
2022/11/22 04:39:21;;;;;;;6.25;4.13;;;;;;;5.33;70.19;98925.84;4977137;28;20195;-93
2022/11/22 04:44:39;;;;;;;6.63;3.70;;;;;;;5.28;70.30;98933.00;4979758;28;20037;-95
2022/11/22 04:44:41;;;;;;;6.55;3.50;;;;;;;5.25;69.58;98919.09;4995200;28;21691;-94
2022/11/22 04:47:11;;;;;;;8.77;4.10;;;;;;;5.22;70.31;98932.91;4988610;28;20022;-94
2022/11/22 04:49:37;;;;;;;6.97;3.95;;;;;;;5.16;71.15;98939.22;4972085;28;20472;-93
2022/11/22 04:54:47;;;;;;;6.93;3.42;;;;;;;4.94;71.46;98941.00;4976528;28;20101;-93
2022/11/22 04:57:12;;;;;;;7.43;4.40;;;;;;;4.93;71.69;98942.84;4959722;28;20026;-93
2022/11/22 04:59:37;;;;;;;5.25;3.80;;;;;;;4.88;71.63;98937.44;4959294;28;20031;-93
2022/11/22 05:02:03;;;;;;;9.90;3.92;;;;;;;4.92;71.34;98962.59;4975109;28;20089;-91
2022/11/22 05:04:29;;;;;;;5.63;3.78;;;;;;;4.87;71.46;98954.50;4943362;28;20061;-93
2022/11/22 05:06:55;;;;;;;6.03;3.85;;;;;;;4.99;71.12;98955.22;4959048;28;20114;-93
2022/11/22 05:09:21;;;;;;;8.85;3.75;;;;;;;5.02;70.55;98968.09;4943907;28;20031;-94
2022/11/22 05:11:46;;;;;;;6.30;3.70;;;;;;;5.03;70.03;98980.38;4959231;28;20433;-93
2022/11/22 05:14:12;;;;;;;5.32;3.65;;;;;;;5.06;69.61;98979.91;4969771;28;20054;-93
2022/11/22 05:16:38;;;;;;;7.57;4.00;;;;;;;5.03;70.68;98972.38;4949480;28;20041;-94
2022/11/22 05:19:05;;;;;;;14.32;6.88;;;;;;;4.96;70.72;98990.41;4972083;28;20037;-92
2022/11/22 05:21:34;;;;;;;11.13;5.18;;;;;;;4.93;70.74;98977.53;4992380;28;20523;-94
2022/11/22 05:24:00;;;;;;;7.07;3.88;;;;;;;4.85;71.27;98988.59;4968841;28;20031;-93
2022/11/22 05:26:27;;;;;;;7.88;3.85;;;;;;;4.83;71.24;98985.38;4979556;28;20086;-93
2022/11/22 05:28:53;;;;;;;6.20;3.60;;;;;;;4.89;70.25;98971.06;4982175;28;20045;-94
2022/11/22 05:31:22;;;;;;;5.72;3.92;;;;;;;4.80;72.18;98983.19;4979576;28;20026;-95
2022/11/22 05:33:49;;;;;;;4.78;3.47;;;;;;;4.93;70.29;98977.53;4996382;28;20472;-94
2022/11/22 05:36:15;;;;;;;7.45;4.18;;;;;;;4.70;72.24;98980.34;4979740;28;20026;-94
2022/11/22 05:38:42;;;;;;;7.88;4.63;;;;;;;4.80;71.67;98985.84;4981179;28;20038;-92
2022/11/22 05:41:10;;;;;;;5.93;4.55;;;;;;;4.75;71.20;98978.59;4980922;28;20034;-95
2022/11/22 05:43:35;;;;;;;6.85;4.45;;;;;;;4.82;71.20;98981.91;4980513;28;20098;-95
2022/11/22 05:46:05;;;;;;;5.25;3.60;;;;;;;4.91;70.65;98989.50;4979572;28;20026;-95
2022/11/22 05:48:31;;;;;;;5.47;4.03;;;;;;;5.03;69.84;98982.25;4997061;28;20061;-95
2022/11/22 05:50:57;;;;;;;8.77;4.40;;;;;;;4.96;70.50;98990.41;4980249;28;20062;-94
2022/11/22 05:53:23;;;;;;;4.47;3.30;;;;;;;5.11;69.42;98989.06;4980421;28;20495;-95
2022/11/22 05:55:48;;;;;;;7.18;4.82;;;;;;;5.15;69.77;98988.31;4996609;28;20014;-94
2022/11/22 05:58:14;;;;;;;5.93;4.30;;;;;;;5.13;69.59;99005.63;4971497;28;20141;-91
2022/11/22 06:00:39;;;;;;;7.43;4.90;;;;;;;5.15;69.18;98995.53;4985461;28;20026;-90
2022/11/22 06:03:07;;;;;;;7.65;4.38;;;;;;;5.23;70.36;99016.47;4964026;28;20037;-94
2022/11/22 06:05:33;;;;;;;13.65;5.07;;;;;;;5.15;70.14;99009.66;4963347;28;20034;-93
2022/11/22 06:07:59;;;;;;;10.13;4.30;;;;;;;4.99;70.87;99015.78;4965703;28;20027;-90
2022/11/22 06:10:25;;;;;;;7.88;4.53;;;;;;;5.09;70.83;99015.97;4962863;28;20026;-89
2022/11/22 06:12:50;;;;;;;6.78;3.90;;;;;;;4.94;70.05;99008.50;4988345;28;20041;-89
2022/11/22 06:15:16;;;;;;;7.45;3.83;;;;;;;4.98;70.80;99024.84;4962140;28;20518;-88
2022/11/22 06:17:43;;;;;;;7.00;4.22;;;;;;;4.94;70.00;99016.53;4984016;28;20400;-88
2022/11/22 06:20:09;;;;;;;7.43;3.60;;;;;;;5.13;69.64;99030.44;4972942;28;20037;-89
2022/11/22 06:22:35;;;;;;;10.15;3.70;;;;;;;4.93;70.21;99012.22;4964985;28;20025;-93
2022/11/22 06:25:00;;;;;;;10.23;4.28;;;;;;;5.02;70.70;99021.47;4980915;28;20032;-88
2022/11/22 06:27:26;;;;;;;6.20;3.88;;;;;;;5.06;70.54;99032.44;4967364;28;20551;-89
2022/11/22 06:29:51;;;;;;;6.88;3.97;;;;;;;5.11;69.96;99023.75;4944481;28;20022;-92
2022/11/22 06:32:17;;;;;;;8.93;4.50;;;;;;;5.30;70.04;99045.66;4961042;28;20144;-90
2022/11/22 06:34:45;;;;;;;15.95;5.18;;;;;;;5.42;69.08;99035.72;4981353;28;20030;-96
2022/11/22 06:37:15;;;;;;;6.32;4.32;;;;;;;5.23;70.00;99024.47;4966072;28;20035;-94
2022/11/22 06:39:40;;;;;;;7.72;4.50;;;;;;;5.35;69.34;99019.84;4962821;28;20034;-95
2022/11/22 06:42:06;;;;;;;7.07;4.82;;;;;;;5.39;69.92;99030.84;4980891;28;20446;-96
2022/11/22 06:44:41;;;;;;;5.15;3.47;;;;;;;5.48;67.85;99016.06;4981142;28;20080;-95
2022/11/22 06:47:07;;;;;;;13.13;4.60;;;;;;;5.28;68.29;99010.41;4974132;28;20395;-95
2022/11/22 06:49:53;;;;;;;7.45;3.47;;;;;;;5.56;67.15;99030.84;4990200;28;20033;-96
2022/11/22 06:52:28;;;;;;;9.88;6.20;;;;;;;5.74;66.82;99033.25;5008970;28;20100;-96
2022/11/22 06:54:59;;;;;;;9.93;6.38;;;;;;;5.70;68.05;99029.47;4986872;28;20029;-92
2022/11/22 06:57:24;;;;;;;5.93;4.50;;;;;;;5.95;66.09;99037.06;4988379;28;20052;-96
2022/11/22 07:00:09;;;;;;;;;;;;;;;;;;;;;
2022/11/22 07:06:06;;;;;;;;;;;;;;;;;;;;;
2022/11/22 07:09:07;;;;;;;7.10;4.03;;;;;;;6.21;66.01;99058.78;5047574;28;20065;-96
2022/11/22 07:11:50;;;;;;;6.70;3.63;;;;;;;6.29;65.00;99039.66;5022582;28;20044;-96
2022/11/22 07:14:23;;;;;;;6.53;3.75;;;;;;;6.18;66.05;99028.00;5011302;28;20069;-96
2022/11/22 07:16:51;;;;;;;7.03;3.78;;;;;;;6.37;65.81;99020.50;5020653;28;20029;-93
2022/11/22 07:19:17;;;;;;;9.18;6.07;;;;;;;6.56;64.54;99020.19;4978235;28;20050;-93
2022/11/22 07:21:48;;;;;;;6.03;4.25;;;;;;;6.70;64.44;99024.06;5003885;28;20467;-94
2022/11/22 07:24:17;;;;;;;10.15;4.63;;;;;;;6.97;64.58;99053.53;4972249;28;20022;-95
2022/11/22 07:26:42;;;;;;;5.75;4.45;;;;;;;6.87;62.06;99024.78;4972839;28;20034;-93
2022/11/22 07:29:08;;;;;;;11.88;5.30;;;;;;;6.98;61.41;99019.53;4962427;28;20362;-94
2022/11/22 07:31:34;;;;;;;11.80;5.47;;;;;;;7.03;62.25;99036.44;4967394;28;20037;-93
2022/11/22 07:34:02;;;;;;;6.15;3.65;;;;;;;7.17;61.27;99046.75;4967453;28;20042;-93
2022/11/22 07:36:35;;;;;;;7.93;4.30;;;;;;;7.21;61.01;99045.16;4957417;28;20046;-93
2022/11/22 07:39:31;;;;;;;8.50;4.32;;;;;;;7.25;61.23;99030.22;4977855;28;20071;-95
2022/11/22 07:41:59;;;;;;;9.27;4.53;;;;;;;7.21;62.20;99037.13;4965285;28;20081;-93
2022/11/22 07:44:27;;;;;;;7.90;5.47;;;;;;;7.37;61.79;99054.16;4971578;28;20026;-93
2022/11/22 07:46:53;;;;;;;10.25;5.60;;;;;;;7.52;61.33;99051.59;4967747;28;20117;-90
2022/11/22 07:49:29;;;;;;;10.43;6.10;;;;;;;7.51;61.28;99041.13;4982341;28;20088;-96
2022/11/22 07:51:58;;;;;;;9.30;5.28;;;;;;;7.53;61.14;99047.84;4962328;28;20038;-96
2022/11/22 07:54:29;;;;;;;9.52;4.80;;;;;;;7.62;61.80;99054.34;4948854;28;20040;-95
2022/11/22 07:56:57;;;;;;;8.80;4.20;;;;;;;7.63;61.84;99042.56;4942365;28;20429;-96
2022/11/22 07:59:24;;;;;;;6.97;4.80;;;;;;;7.71;61.33;99045.84;4939032;28;20041;-96
2022/11/22 08:01:55;;;;;;;6.07;3.40;;;;;;;7.81;60.84;99032.50;4969315;28;20041;-95
2022/11/22 08:04:23;;;;;;;6.50;3.83;;;;;;;7.52;60.04;99040.88;4977649;28;20488;-96
2022/11/22 08:06:52;;;;;;;6.18;4.30;;;;;;;7.51;60.99;99036.56;4975840;28;20081;-94
2022/11/22 08:09:17;;;;;;;11.63;5.22;;;;;;;7.63;61.48;99036.38;4978270;28;20036;-95
2022/11/22 08:12:08;;;;;;;7.50;3.58;;;;;;;7.94;61.38;99048.13;4980140;28;20133;-96
2022/11/22 08:14:34;;;;;;;6.65;3.63;;;;;;;8.03;60.74;99035.84;4963164;28;20050;-95
2022/11/22 08:16:59;;;;;;;38.22;25.45;;;;;;;8.12;60.77;99025.44;4960646;28;20129;-92
2022/11/22 08:19:25;;;;;;;15.95;9.15;;;;;;;8.27;59.94;99024.69;4970323;28;20046;-95
2022/11/22 08:21:50;;;;;;;19.42;9.98;;;;;;;8.34;59.25;98998.41;4947362;28;20072;-92
2022/11/22 08:24:16;;;;;;;12.25;4.43;;;;;;;8.44;59.77;99011.91;4963190;28;20038;-95
2022/11/22 08:26:44;;;;;;;7.30;4.80;;;;;;;8.75;59.50;99033.47;4968749;28;20120;-96
2022/11/22 08:29:28;;;;;;;5.40;3.42;;;;;;;8.47;58.41;99014.06;4956047;28;20065;-96
2022/11/22 08:31:54;;;;;;;4.50;3.00;;;;;;;8.55;58.58;99010.09;4988434;28;20057;-93
2022/11/22 08:34:22;;;;;;;3.78;2.50;;;;;;;8.67;58.07;99004.47;4967617;28;20543;-96
2022/11/22 08:36:48;;;;;;;5.93;3.22;;;;;;;8.81;57.43;99019.00;4967291;28;20027;-94
2022/11/22 08:39:56;;;;;;;4.97;2.58;;;;;;;8.99;56.46;99024.94;4982973;28;20080;-94
2022/11/22 08:42:25;;;;;;;4.78;3.60;;;;;;;9.16;55.80;99030.88;4981093;28;20110;-94
2022/11/22 08:44:55;;;;;;;4.20;3.25;;;;;;;9.30;55.73;99028.47;4970321;28;20037;-94
2022/11/22 08:47:20;;;;;;;3.88;3.00;;;;;;;9.27;54.42;98999.44;4989158;28;20030;-94
2022/11/22 08:49:46;;;;;;;4.32;3.30;;;;;;;9.43;54.10;99027.13;4989210;28;20488;-95
2022/11/22 08:52:12;;;;;;;6.72;2.90;;;;;;;9.51;53.80;99013.94;4993879;28;20084;-96
2022/11/22 08:54:39;;;;;;;4.90;3.10;;;;;;;9.64;52.77;99009.88;4964567;28;20038;-93
2022/11/22 08:57:07;;;;;;;6.78;4.43;;;;;;;9.77;51.92;99007.72;4969897;28;20089;-94
2022/11/22 08:59:35;;;;;;;3.58;2.38;;;;;;;9.76;48.05;98995.38;5010240;28;20022;-93
2022/11/22 09:02:04;;;;;;;3.67;2.30;;;;;;;9.77;47.98;98999.66;4979932;28;20039;-93
2022/11/22 09:04:42;;;;;;;;;;;;;;;;;;;;;
2022/11/22 09:07:18;;;;;;;4.57;2.42;;;;;;;9.93;49.15;98995.84;4963963;28;20113;-93
2022/11/22 09:09:56;;;;;;;6.15;2.67;;;;;;;10.00;49.40;98991.00;4946757;28;20026;-96
2022/11/22 09:12:31;;;;;;;3.65;2.80;;;;;;;10.02;50.23;98988.00;4930219;28;20038;-94
2022/11/22 09:14:59;;;;;;;4.32;2.67;;;;;;;9.95;49.61;98988.31;4921360;28;20038;-93
2022/11/22 09:17:34;;;;;;;8.05;3.50;;;;;;;10.10;50.01;98987.44;4920080;29;20043;-95
2022/11/22 09:20:36;;;;;;;4.35;3.35;;;;;;;10.29;48.59;98987.63;4946914;28;20409;-96
2022/11/22 09:22:59;;;;;;;4.68;2.95;;;;;;;10.47;48.94;99003.19;4955106;29;20034;-90
2022/11/22 09:25:28;;;;;;;3.38;2.30;;;;;;;10.51;47.30;98993.50;4901620;29;20044;-90
2022/11/22 09:27:54;;;;;;;3.58;2.30;;;;;;;10.35;47.68;98970.41;4900468;29;20044;-91
2022/11/22 09:30:20;;;;;;;6.68;3.50;;;;;;;10.27;49.42;98962.91;4899878;29;20048;-91
2022/11/22 09:32:46;;;;;;;3.58;2.30;;;;;;;10.48;49.68;98977.09;4897314;29;20044;-90
2022/11/22 09:35:11;;;;;;;5.75;3.63;;;;;;;10.54;48.50;98957.13;4916733;29;20087;-90
2022/11/22 09:37:37;;;;;;;5.25;2.78;;;;;;;10.58;47.27;98942.03;4933217;29;20028;-92
2022/11/22 09:40:06;;;;;;;6.25;3.55;;;;;;;10.63;47.39;98936.63;4921190;29;20043;-91
2022/11/22 09:42:31;;;;;;;4.10;2.58;;;;;;;10.62;47.02;98944.97;4905711;29;20028;-91
2022/11/22 09:45:32;;;;;;;4.57;2.80;;;;;;;10.71;47.57;98929.84;4918113;29;20039;-87
2022/11/22 09:48:30;;;;;;;4.18;2.60;;;;;;;10.82;47.34;98930.56;4903784;29;20130;-90
2022/11/22 09:51:06;;;;;;;6.00;2.40;;;;;;;10.67;47.33;98920.72;4923035;29;20046;-89
2022/11/22 09:54:07;;;;;;;6.38;3.47;;;;;;;10.76;47.24;98912.84;4933339;29;20028;-93
2022/11/22 09:56:35;;;;;;;4.13;2.33;;;;;;;10.85;45.19;98898.50;4939087;28;20066;-93
2022/11/22 09:59:19;;;;;;;4.20;2.78;;;;;;;11.04;45.50;98913.94;4953143;28;20038;-92
2022/11/22 10:01:50;;;;;;;4.75;3.90;;;;;;;11.04;46.11;98908.56;4941163;29;20062;-94
2022/11/22 10:04:43;;;;;;;3.50;2.65;;;;;;;11.24;44.52;98907.59;4914098;28;20414;-90
2022/11/22 10:07:17;;;;;;;5.22;3.00;;;;;;;11.13;45.60;98893.41;4947963;28;20500;-90
2022/11/22 10:09:50;;;;;;;6.18;2.40;;;;;;;11.17;44.06;98872.09;4946667;28;20035;-90
2022/11/22 10:12:25;;;;;;;5.20;2.45;;;;;;;11.26;43.12;98881.94;4960246;28;20039;-91
2022/11/22 10:15:07;;;;;;;3.70;2.63;;;;;;;11.52;42.76;98898.69;4963591;28;20128;-93
2022/11/22 10:18:26;;;;;;;6.55;4.47;;;;;;;11.57;43.18;98895.13;4997615;28;20022;-95
2022/11/22 10:20:59;;;;;;;2.72;2.10;;;;;;;11.62;43.28;98868.09;4955618;28;20123;-94
2022/11/22 10:23:31;;;;;;;3.40;2.22;;;;;;;11.75;42.09;98882.00;4965065;28;20108;-96
2022/11/22 10:26:19;;;;;;;4.30;3.33;;;;;;;11.76;42.50;98864.69;4943008;28;20061;-92
2022/11/22 10:28:54;;;;;;;3.22;2.38;;;;;;;11.91;41.52;98867.22;4958932;28;20224;-93
2022/11/22 10:31:40;;;;;;;7.15;3.42;;;;;;;11.94;41.77;98861.25;4976838;28;20097;-93
2022/11/22 10:35:12;;;;;;;4.00;2.30;;;;;;;11.93;41.18;98841.59;4984918;28;20029;-95
2022/11/22 10:38:31;;;;;;;;;;;;;;;;;;;;;
2022/11/22 10:41:28;;;;;;;4.25;2.40;;;;;;;12.15;40.67;98845.59;5013626;28;20053;-96
2022/11/22 10:44:21;;;;;;;22.77;12.52;;;;;;;12.02;40.00;98822.03;5030648;28;20018;-96
2022/11/22 10:47:02;;;;;;;3.97;2.10;;;;;;;12.26;39.77;98841.63;4981191;28;20117;-92
2022/11/22 10:49:57;;;;;;;5.63;1.60;;;;;;;12.09;39.79;98815.16;4981546;28;20048;-92
2022/11/22 10:52:53;;;;;;;3.20;1.83;;;;;;;12.28;39.43;98828.66;4990170;28;20068;-92
2022/11/22 10:55:50;;;;;;;4.05;2.22;;;;;;;12.10;39.82;98803.31;4991277;28;20034;-92
2022/11/22 10:58:21;;;;;;;5.68;2.10;;;;;;;12.27;38.96;98808.16;4968831;28;20053;-91
2022/11/22 11:00:50;;;;;;;3.08;1.90;;;;;;;12.36;38.37;98813.69;4980225;28;20034;-92
2022/11/22 11:03:32;;;;;;;2.17;1.50;;;;;;;12.47;37.73;98828.66;4963047;28;20096;-91
2022/11/22 11:06:00;;;;;;;1.98;1.27;;;;;;;12.50;36.22;98827.25;4991957;28;20030;-90
2022/11/22 11:08:41;;;;;;;4.93;2.70;;;;;;;12.42;37.21;98793.63;4992220;28;20485;-95
2022/11/22 11:11:19;;;;;;;3.15;1.98;;;;;;;12.73;36.12;98799.31;4977580;28;20054;-92
2022/11/22 11:13:52;;;;;;;2.53;1.52;;;;;;;12.80;37.44;98795.44;4978978;28;20336;-89
2022/11/22 11:16:20;;;;;;;3.78;1.50;;;;;;;12.94;37.13;98793.56;4964531;28;20034;-94
2022/11/22 11:18:55;;;;;;;4.60;1.85;;;;;;;12.95;37.19;98805.97;4982047;28;20069;-96
2022/11/22 11:21:20;;;;;;;1.80;1.40;;;;;;;13.04;36.53;98801.47;4999435;28;20109;-94
2022/11/22 11:23:47;;;;;;;2.60;1.80;;;;;;;13.03;38.44;98807.16;4973259;28;20050;-96
2022/11/22 11:26:29;;;;;;;4.28;2.00;;;;;;;12.95;39.57;98803.28;4984597;28;20037;-95
2022/11/22 11:29:35;;;;;;;3.40;2.40;;;;;;;13.21;40.86;98835.22;4985145;28;20030;-96
2022/11/22 11:32:39;;;;;;;;;;;;;;;;;;;;;
2022/11/22 11:35:13;;;;;;;127.90;72.00;;;;;;;13.13;40.95;98802.38;4938217;28;20075;-95
2022/11/22 11:37:41;;;;;;;9.15;5.68;;;;;;;13.17;40.11;98791.78;5003783;28;20022;-96
2022/11/22 11:40:31;;;;;;;5.00;3.15;;;;;;;13.32;41.24;98810.44;4982307;28;20034;-94
2022/11/22 11:43:27;;;;;;;4.35;3.30;;;;;;;13.24;40.36;98792.19;4999852;28;20114;-96
2022/11/22 11:45:52;;;;;;;3.17;2.10;;;;;;;13.26;39.15;98768.34;4978308;28;20097;-95
2022/11/22 11:48:37;;;;;;;4.35;2.30;;;;;;;13.30;39.69;98772.09;4983140;28;20057;-94
2022/11/22 11:51:34;;;;;;;4.18;2.50;;;;;;;13.34;40.42;98783.91;4982950;28;20519;-95
2022/11/22 11:54:14;;;;;;;3.20;1.67;;;;;;;13.12;40.25;98759.44;5014078;28;20481;-93
2022/11/22 11:56:58;;;;;;;4.25;2.40;;;;;;;13.22;40.43;98759.25;4977183;28;20034;-95
2022/11/22 12:00:02;;;;;;;4.95;2.83;;;;;;;13.43;41.19;98778.59;4998024;28;20034;-95
2022/11/22 12:03:20;;;;;;;3.63;2.00;;;;;;;13.45;40.71;98762.88;4983243;28;20031;-92
2022/11/22 12:05:46;;;;;;;4.50;2.78;;;;;;;13.56;41.18;98755.34;4971808;28;20042;-95
2022/11/22 12:08:52;;;;;;;2.60;1.80;;;;;;;13.66;40.82;98763.22;4970269;28;20033;-94
2022/11/22 12:11:28;;;;;;;5.75;2.45;;;;;;;13.76;41.27;98767.63;4993798;28;20061;-95
2022/11/22 12:13:59;;;;;;;4.78;2.45;;;;;;;13.97;39.42;98767.97;4981053;28;20046;-95
2022/11/22 12:16:36;;;;;;;9.97;4.37;;;;;;;14.05;39.57;98782.66;4960178;28;20037;-92
2022/11/22 12:19:19;;;;;;;5.10;3.03;;;;;;;13.99;39.13;98773.88;4964425;28;20026;-96
2022/11/22 12:22:19;;;;;;;3.88;1.90;;;;;;;14.25;39.30;98784.91;4998892;28;20030;-92